Time;durP1;ratioP1;P1;durP2;ratioP2;P2;SDS_P1;SDS_P2;PMS_P1;PMS_P2;Temp;Humidity;BMP_temperature;BMP_pressure;BME280_temperature;BME280_humidity;BME280_pressure;Samples;Min_cycle;Max_cycle;Signal;HPM_P1;HPM_P2
2023/09/09 00:01:38;;;;;;;9.27;8.25;;;18.80;99.90;;;;;;4966232;28;20110;-83
2023/09/09 00:04:04;;;;;;;10.20;9.00;;;18.80;99.90;;;;;;4969401;28;20462;-82
2023/09/09 00:06:30;;;;;;;9.20;8.38;;;18.70;99.90;;;;;;4985645;28;20076;-83
2023/09/09 00:08:55;;;;;;;9.25;7.30;;;18.70;99.90;;;;;;4961195;28;20042;-83
2023/09/09 00:11:21;;;;;;;9.00;7.97;;;18.70;99.90;;;;;;4985856;28;20030;-82
2023/09/09 00:13:47;;;;;;;9.10;8.20;;;18.70;99.90;;;;;;4964788;28;20133;-83
2023/09/09 00:16:12;;;;;;;9.15;8.20;;;18.70;99.90;;;;;;4970355;28;20031;-83
2023/09/09 00:18:38;;;;;;;9.23;8.27;;;18.60;99.90;;;;;;4964767;28;20067;-82
2023/09/09 00:21:07;;;;;;;8.48;7.68;;;18.70;99.90;;;;;;4957228;28;20027;-82
2023/09/09 00:23:32;;;;;;;9.45;8.52;;;18.60;99.90;;;;;;4958008;28;20083;-82
2023/09/09 00:25:58;;;;;;;8.88;7.80;;;18.50;99.90;;;;;;4969269;28;20022;-81
2023/09/09 00:28:24;;;;;;;9.93;7.95;;;18.50;99.90;;;;;;4967653;28;20386;-84
2023/09/09 00:30:50;;;;;;;8.70;8.00;;;18.50;99.90;;;;;;4970121;28;20113;-85
2023/09/09 00:33:16;;;;;;;9.45;8.55;;;18.50;99.90;;;;;;4984285;28;20117;-83
2023/09/09 00:35:42;;;;;;;8.88;8.10;;;18.40;99.90;;;;;;4969491;28;20068;-82
2023/09/09 00:38:12;;;;;;;8.98;8.18;;;18.40;99.90;;;;;;4967600;28;20036;-82
2023/09/09 00:40:41;;;;;;;8.90;8.10;;;18.40;99.90;;;;;;4962720;28;20022;-82
2023/09/09 00:43:07;;;;;;;8.23;7.43;;;18.30;99.90;;;;;;4956104;28;20034;-82
2023/09/09 00:45:33;;;;;;;9.25;8.40;;;18.30;99.90;;;;;;4969592;28;20688;-83
2023/09/09 00:47:58;;;;;;;11.73;10.55;;;18.30;99.90;;;;;;4969108;28;20058;-82
2023/09/09 00:50:24;;;;;;;10.80;9.60;;;18.20;99.90;;;;;;4969772;28;20035;-81
2023/09/09 00:52:50;;;;;;;10.95;9.85;;;18.20;99.90;;;;;;4953017;28;20118;-83
2023/09/09 00:55:16;;;;;;;10.00;9.00;;;18.10;99.90;;;;;;4952671;28;20113;-83
2023/09/09 00:57:42;;;;;;;9.93;8.90;;;18.10;99.90;;;;;;4953487;28;20470;-83
2023/09/09 01:00:11;;;;;;;9.85;8.85;;;18.10;99.90;;;;;;4967855;28;20371;-83
2023/09/09 01:02:38;;;;;;;11.38;8.93;;;18.10;99.90;;;;;;4948952;28;20026;-83
2023/09/09 01:05:08;;;;;;;9.90;8.90;;;18.10;99.90;;;;;;4950526;28;20030;-83
2023/09/09 01:07:48;;;;;;;10.95;9.57;;;18.10;99.90;;;;;;4971653;28;20279;-82
2023/09/09 01:10:17;;;;;;;9.73;8.73;;;18.20;99.90;;;;;;4984570;28;20030;-82
2023/09/09 01:12:43;;;;;;;10.65;9.63;;;18.10;99.90;;;;;;4968142;28;20047;-82
2023/09/09 01:15:10;;;;;;;10.00;9.00;;;18.10;99.90;;;;;;4968727;28;20076;-82
2023/09/09 01:17:36;;;;;;;10.63;9.63;;;18.10;99.90;;;;;;4963666;28;20391;-83
2023/09/09 01:20:07;;;;;;;11.95;10.70;;;18.00;99.90;;;;;;4968757;28;20030;-83
2023/09/09 01:22:35;;;;;;;11.15;10.05;;;18.00;99.90;;;;;;4985484;28;20160;-81
2023/09/09 01:25:05;;;;;;;12.75;10.02;;;18.00;99.90;;;;;;4951735;28;20019;-83
2023/09/09 01:27:31;;;;;;;11.25;10.15;;;18.00;99.90;;;;;;5043541;28;20050;-82
2023/09/09 01:29:57;;;;;;;12.57;11.27;;;17.90;99.90;;;;;;4958561;28;20484;-81
2023/09/09 01:32:23;;;;;;;11.15;10.00;;;17.90;99.90;;;;;;4960696;28;20041;-82
2023/09/09 01:34:50;;;;;;;13.52;12.20;;;17.90;99.90;;;;;;4972965;28;20034;-81
2023/09/09 01:37:16;;;;;;;12.15;11.02;;;17.80;99.90;;;;;;4968692;28;20134;-82
2023/09/09 01:39:42;;;;;;;11.90;10.70;;;17.80;99.90;;;;;;4960910;28;20106;-82
2023/09/09 01:42:08;;;;;;;11.73;10.52;;;17.70;99.90;;;;;;4985495;28;20064;-82
2023/09/09 01:44:33;;;;;;;11.27;10.23;;;17.80;99.90;;;;;;4960369;28;20115;-81
2023/09/09 01:46:59;;;;;;;11.35;10.32;;;17.80;99.90;;;;;;4968094;28;20022;-82
2023/09/09 01:49:25;;;;;;;10.88;9.77;;;17.80;99.90;;;;;;4952035;28;20457;-82
2023/09/09 01:51:51;;;;;;;12.20;11.07;;;17.80;99.90;;;;;;4982850;28;20458;-83
2023/09/09 01:54:17;;;;;;;13.48;12.07;;;17.80;99.90;;;;;;4968266;28;20072;-81
2023/09/09 01:56:44;;;;;;;13.43;11.68;;;17.80;99.90;;;;;;4964329;28;20023;-82
2023/09/09 01:59:10;;;;;;;13.48;12.07;;;17.70;99.90;;;;;;4964372;28;20435;-82
2023/09/09 02:01:36;;;;;;;13.10;11.80;;;17.70;99.90;;;;;;4963238;28;20023;-83
2023/09/09 02:04:02;;;;;;;12.50;11.27;;;17.70;99.90;;;;;;4985649;28;20168;-82
2023/09/09 02:06:28;;;;;;;13.45;12.15;;;17.70;99.90;;;;;;4951915;28;20065;-81
2023/09/09 02:08:53;;;;;;;14.27;12.88;;;17.70;99.90;;;;;;4985466;28;20117;-82
2023/09/09 02:11:19;;;;;;;14.15;12.65;;;17.80;99.90;;;;;;4965457;28;20105;-80
2023/09/09 02:13:46;;;;;;;14.55;13.15;;;17.70;99.90;;;;;;4971174;28;20072;-82
2023/09/09 02:16:12;;;;;;;14.73;13.23;;;17.70;99.90;;;;;;4967351;28;20237;-82
2023/09/09 02:18:39;;;;;;;14.32;12.82;;;17.60;99.90;;;;;;4974644;28;20105;-82
2023/09/09 02:21:07;;;;;;;14.63;13.02;;;17.60;99.90;;;;;;4956547;28;20068;-82
2023/09/09 02:23:33;;;;;;;13.80;12.43;;;17.60;99.90;;;;;;4976848;28;20026;-81
2023/09/09 02:25:59;;;;;;;13.30;12.02;;;17.60;99.90;;;;;;4971144;28;20389;-82
2023/09/09 02:28:25;;;;;;;12.10;10.93;;;17.50;99.90;;;;;;4970845;28;20087;-81
2023/09/09 02:30:51;;;;;;;13.38;12.02;;;17.60;99.90;;;;;;4960989;28;20023;-83
2023/09/09 02:33:16;;;;;;;11.50;10.40;;;17.60;99.90;;;;;;4971850;28;20379;-80
2023/09/09 02:35:43;;;;;;;11.82;10.63;;;17.60;99.90;;;;;;4954703;28;20103;-82
2023/09/09 02:38:09;;;;;;;11.70;10.60;;;17.60;99.90;;;;;;4954382;28;20034;-81
2023/09/09 02:40:35;;;;;;;10.50;9.45;;;17.60;99.90;;;;;;4987335;28;20068;-82
2023/09/09 02:43:00;;;;;;;12.57;10.73;;;17.60;99.90;;;;;;4962186;28;20039;-82
2023/09/09 02:45:26;;;;;;;11.02;9.95;;;17.50;99.90;;;;;;4954898;28;20029;-82
2023/09/09 02:47:52;;;;;;;11.35;10.05;;;17.50;99.90;;;;;;5003540;28;20026;-81
2023/09/09 02:50:19;;;;;;;12.30;11.05;;;17.50;99.90;;;;;;4966124;28;20473;-81
2023/09/09 02:52:44;;;;;;;13.20;11.50;;;17.60;99.90;;;;;;4970064;28;20030;-82
2023/09/09 02:55:10;;;;;;;13.93;12.52;;;17.60;99.90;;;;;;4967249;28;20522;-80
2023/09/09 02:57:36;;;;;;;13.68;12.27;;;17.70;99.90;;;;;;4959699;28;20046;-81
2023/09/09 03:00:03;;;;;;;13.65;12.25;;;17.60;99.90;;;;;;4962799;28;20168;-82
2023/09/09 03:02:29;;;;;;;14.93;13.38;;;17.70;99.90;;;;;;4967550;28;20022;-81
2023/09/09 03:04:56;;;;;;;14.27;12.82;;;17.70;99.90;;;;;;4983505;28;20037;-82
2023/09/09 03:07:22;;;;;;;13.48;12.07;;;17.70;99.90;;;;;;4967905;28;20022;-83
2023/09/09 03:09:49;;;;;;;14.15;12.65;;;17.70;99.90;;;;;;4951630;28;20034;-83
2023/09/09 03:12:20;;;;;;;14.15;12.75;;;17.70;99.90;;;;;;4987572;28;20400;-82
2023/09/09 03:14:47;;;;;;;13.88;12.52;;;17.70;99.90;;;;;;4974309;28;20027;-82
2023/09/09 03:17:14;;;;;;;15.40;13.32;;;17.70;99.90;;;;;;4953568;28;20076;-82
2023/09/09 03:19:39;;;;;;;14.85;13.43;;;17.70;99.90;;;;;;4964607;28;20076;-82
2023/09/09 03:22:05;;;;;;;12.80;11.40;;;17.60;99.90;;;;;;4969017;28;20027;-82
2023/09/09 03:24:31;;;;;;;13.25;11.98;;;17.50;99.90;;;;;;4954134;28;20034;-81
2023/09/09 03:26:57;;;;;;;12.75;11.32;;;17.40;99.90;;;;;;4987247;28;20026;-82
2023/09/09 03:29:23;;;;;;;12.70;11.50;;;17.30;99.90;;;;;;4970062;28;20042;-82
2023/09/09 03:31:50;;;;;;;13.45;12.00;;;17.20;99.90;;;;;;4984875;28;20066;-82
2023/09/09 03:34:17;;;;;;;13.43;12.02;;;17.20;99.90;;;;;;4954420;28;20041;-81
2023/09/09 03:36:42;;;;;;;15.18;12.75;;;17.20;99.90;;;;;;4980533;28;20072;-82
2023/09/09 03:39:09;;;;;;;13.68;11.98;;;17.20;99.90;;;;;;4975159;28;20034;-82
2023/09/09 03:41:34;;;;;;;13.27;11.98;;;17.10;99.90;;;;;;4954395;28;20469;-81
2023/09/09 03:44:00;;;;;;;12.90;11.63;;;17.10;99.90;;;;;;4984596;28;20027;-80
2023/09/09 03:46:26;;;;;;;12.52;11.23;;;17.10;99.90;;;;;;4970140;28;20031;-82
2023/09/09 03:48:53;;;;;;;12.98;11.68;;;17.00;99.90;;;;;;4976198;28;20398;-82
2023/09/09 03:51:19;;;;;;;12.93;11.45;;;17.00;99.90;;;;;;4967658;28;20033;-84
2023/09/09 03:53:45;;;;;;;12.18;10.88;;;17.00;99.90;;;;;;4970039;28;20122;-83
2023/09/09 03:56:11;;;;;;;13.43;12.00;;;17.00;99.90;;;;;;4962667;28;20088;-81
2023/09/09 03:58:37;;;;;;;13.00;11.70;;;17.00;99.90;;;;;;4958408;28;20038;-81
2023/09/09 04:01:08;;;;;;;12.70;11.15;;;17.00;99.90;;;;;;4970109;28;20034;-83
2023/09/09 04:03:36;;;;;;;12.13;10.45;;;17.00;99.90;;;;;;4954171;28;20033;-80
2023/09/09 04:06:05;;;;;;;11.95;10.75;;;17.00;99.90;;;;;;4985950;28;20022;-82
2023/09/09 04:08:31;;;;;;;13.57;12.18;;;17.20;99.90;;;;;;4966452;28;20501;-82
2023/09/09 04:10:57;;;;;;;13.80;12.40;;;17.20;99.90;;;;;;5001877;28;20054;-81
2023/09/09 04:13:23;;;;;;;15.73;13.38;;;17.20;99.90;;;;;;4966478;28;20119;-82
2023/09/09 04:15:51;;;;;;;15.18;13.60;;;17.10;99.90;;;;;;4965457;28;20079;-81
2023/09/09 04:18:17;;;;;;;14.50;13.10;;;17.10;99.90;;;;;;4952480;28;20022;-82
2023/09/09 04:20:44;;;;;;;14.50;12.93;;;17.00;99.90;;;;;;4953192;28;20050;-82
2023/09/09 04:23:10;;;;;;;14.85;13.25;;;16.90;99.90;;;;;;4966638;28;20079;-82
2023/09/09 04:25:36;;;;;;;14.90;13.30;;;16.90;99.90;;;;;;4959917;28;20027;-82
2023/09/09 04:28:02;;;;;;;16.45;14.50;;;16.90;99.90;;;;;;4957108;28;20039;-81
2023/09/09 04:30:28;;;;;;;15.65;13.52;;;16.90;99.90;;;;;;4968451;28;20038;-81
2023/09/09 04:32:54;;;;;;;15.45;13.82;;;16.80;99.90;;;;;;4986459;28;20077;-81
2023/09/09 04:35:20;;;;;;;14.77;13.27;;;16.90;99.90;;;;;;4953116;28;20498;-82
2023/09/09 04:37:46;;;;;;;16.38;14.65;;;16.80;99.90;;;;;;4969572;28;20054;-82
2023/09/09 04:40:12;;;;;;;14.85;13.40;;;16.80;99.90;;;;;;4967274;28;20031;-83
2023/09/09 04:42:38;;;;;;;14.40;12.95;;;16.80;99.90;;;;;;4965524;28;20075;-81
2023/09/09 04:45:04;;;;;;;14.65;13.25;;;16.70;99.90;;;;;;4952518;28;20031;-81
2023/09/09 04:47:30;;;;;;;14.63;13.23;;;16.70;99.90;;;;;;4958278;28;20046;-81
2023/09/09 04:49:58;;;;;;;13.95;12.65;;;16.70;99.90;;;;;;4958671;28;20072;-81
2023/09/09 04:52:24;;;;;;;14.63;13.30;;;16.60;99.90;;;;;;4969055;28;20058;-81
2023/09/09 04:54:50;;;;;;;14.50;13.02;;;16.60;99.90;;;;;;5001630;28;20045;-82
2023/09/09 04:57:16;;;;;;;14.15;12.65;;;16.60;99.90;;;;;;4966604;28;20022;-81
2023/09/09 04:59:42;;;;;;;16.38;12.88;;;16.60;99.90;;;;;;4968737;28;20038;-82
2023/09/09 05:02:08;;;;;;;15.05;13.55;;;16.60;99.90;;;;;;4957943;28;20506;-83
2023/09/09 05:04:33;;;;;;;14.38;12.88;;;16.60;99.90;;;;;;4952858;28;20029;-82
2023/09/09 05:07:00;;;;;;;16.35;13.73;;;16.60;99.90;;;;;;4958100;28;20386;-82
2023/09/09 05:09:27;;;;;;;15.45;13.88;;;16.70;99.90;;;;;;5050059;28;20091;-83
2023/09/09 05:11:53;;;;;;;14.95;13.45;;;16.60;99.90;;;;;;4955877;28;20026;-81
2023/09/09 05:14:19;;;;;;;14.93;13.32;;;16.60;99.90;;;;;;4968307;28;20401;-81
2023/09/09 05:16:45;;;;;;;13.80;12.38;;;16.60;99.90;;;;;;4975035;28;20022;-81
2023/09/09 05:19:10;;;;;;;15.20;13.60;;;16.60;99.90;;;;;;4975014;28;20595;-83
2023/09/09 05:21:36;;;;;;;15.13;13.52;;;16.60;99.90;;;;;;4958298;28;20029;-82
2023/09/09 05:24:02;;;;;;;15.18;13.70;;;16.60;99.90;;;;;;4968062;28;20034;-83
2023/09/09 05:26:28;;;;;;;14.32;12.88;;;16.60;99.90;;;;;;4957569;28;20386;-82
2023/09/09 05:28:54;;;;;;;14.82;12.95;;;16.60;99.90;;;;;;4967315;28;20122;-82
2023/09/09 05:31:20;;;;;;;14.93;13.32;;;16.60;99.90;;;;;;4968222;28;20437;-82
2023/09/09 05:33:46;;;;;;;13.82;12.38;;;16.70;99.90;;;;;;4952465;28;20130;-81
2023/09/09 05:36:11;;;;;;;14.30;12.68;;;16.70;99.90;;;;;;4968605;28;20027;-83
2023/09/09 05:38:37;;;;;;;16.55;13.75;;;16.70;99.90;;;;;;4965717;28;20109;-82
2023/09/09 05:41:04;;;;;;;13.93;12.52;;;16.80;99.90;;;;;;4952353;28;20030;-83
2023/09/09 05:43:31;;;;;;;15.13;13.52;;;16.90;99.90;;;;;;4951809;28;20677;-82
2023/09/09 05:46:03;;;;;;;13.85;12.40;;;16.80;99.90;;;;;;4962756;28;20057;-82
2023/09/09 05:48:31;;;;;;;13.48;12.02;;;16.90;99.90;;;;;;4965403;28;20045;-81
2023/09/09 05:50:57;;;;;;;14.63;13.07;;;17.00;99.90;;;;;;4959862;28;20026;-82
2023/09/09 05:53:23;;;;;;;15.50;12.60;;;17.00;99.90;;;;;;4962247;28;20027;-85
2023/09/09 05:55:49;;;;;;;14.48;13.00;;;17.00;99.90;;;;;;4971587;28;20125;-81
2023/09/09 05:58:15;;;;;;;16.77;14.23;;;17.10;99.90;;;;;;4954551;28;20541;-82
2023/09/09 06:00:41;;;;;;;15.13;13.60;;;17.30;99.90;;;;;;4959917;28;20023;-81
2023/09/09 06:03:07;;;;;;;15.25;13.63;;;17.30;99.90;;;;;;4968638;28;20030;-82
2023/09/09 06:05:33;;;;;;;14.85;13.35;;;17.30;99.90;;;;;;4955066;28;20122;-82
2023/09/09 06:07:59;;;;;;;14.82;13.27;;;17.30;99.90;;;;;;4954565;28;20452;-83
2023/09/09 06:10:25;;;;;;;15.82;14.20;;;17.40;99.90;;;;;;4971233;28;20669;-82
2023/09/09 06:12:51;;;;;;;14.80;13.20;;;17.50;99.90;;;;;;4987776;28;20042;-82
2023/09/09 06:15:17;;;;;;;14.35;12.88;;;17.50;99.90;;;;;;4968744;28;20026;-83
2023/09/09 06:17:42;;;;;;;15.80;14.20;;;17.70;99.90;;;;;;4969441;28;20098;-82
2023/09/09 06:20:09;;;;;;;15.70;14.18;;;17.90;99.90;;;;;;4966753;28;20103;-83
2023/09/09 06:22:36;;;;;;;17.55;15.68;;;17.90;99.90;;;;;;4976750;28;20023;-82
2023/09/09 06:25:04;;;;;;;16.45;14.75;;;18.10;99.90;;;;;;4964495;28;20031;-82
2023/09/09 06:27:30;;;;;;;16.42;14.65;;;18.10;99.90;;;;;;4980289;28;20023;-82
2023/09/09 06:29:55;;;;;;;17.27;15.55;;;18.20;99.90;;;;;;4975310;28;20053;-81
2023/09/09 06:32:22;;;;;;;17.73;15.82;;;18.30;99.90;;;;;;4969925;28;20026;-81
2023/09/09 06:34:47;;;;;;;19.52;17.45;;;18.50;99.90;;;;;;4975483;28;20027;-82
2023/09/09 06:37:13;;;;;;;18.88;16.90;;;18.60;99.90;;;;;;4954384;28;20492;-81
2023/09/09 06:39:39;;;;;;;18.88;16.85;;;18.70;99.90;;;;;;4988263;28;20488;-83
2023/09/09 06:42:05;;;;;;;27.15;23.42;;;18.80;99.90;;;;;;4968368;28;20038;-83
2023/09/09 06:44:32;;;;;;;30.90;27.52;;;18.90;99.90;;;;;;4970248;28;20030;-83
2023/09/09 06:46:58;;;;;;;37.38;32.75;;;19.00;99.90;;;;;;4953915;28;20066;-82
2023/09/09 06:49:24;;;;;;;49.95;42.58;;;19.10;99.90;;;;;;4970879;28;20058;-82
2023/09/09 06:51:50;;;;;;;54.15;45.17;;;19.20;99.90;;;;;;4955080;28;20478;-82
2023/09/09 06:54:17;;;;;;;44.88;37.40;;;19.20;99.90;;;;;;4964879;28;20538;-84
2023/09/09 06:56:43;;;;;;;43.83;37.03;;;19.30;99.90;;;;;;4954726;28;20109;-83
2023/09/09 06:59:08;;;;;;;44.97;37.08;;;19.40;99.90;;;;;;4967233;28;20372;-83
2023/09/09 07:01:34;;;;;;;40.85;32.97;;;19.50;99.90;;;;;;4986538;28;20390;-84
2023/09/09 07:04:00;;;;;;;34.28;28.30;;;19.60;99.90;;;;;;4986268;28;20030;-84
2023/09/09 07:06:25;;;;;;;42.55;34.83;;;19.70;99.90;;;;;;4967193;28;20033;-83
2023/09/09 07:08:52;;;;;;;39.95;32.45;;;19.70;99.90;;;;;;4953588;28;20053;-84
2023/09/09 07:11:18;;;;;;;34.72;29.15;;;19.70;99.90;;;;;;4959289;28;20080;-84
2023/09/09 07:13:43;;;;;;;34.63;26.95;;;19.80;99.90;;;;;;4985190;28;20035;-83
2023/09/09 07:16:09;;;;;;;38.47;29.90;;;19.90;99.90;;;;;;4966763;28;20073;-82
2023/09/09 07:18:35;;;;;;;41.97;33.58;;;19.90;99.90;;;;;;4951326;28;20037;-85
2023/09/09 07:21:00;;;;;;;58.97;45.42;;;19.90;99.90;;;;;;4952282;28;20314;-84
2023/09/09 07:23:26;;;;;;;62.92;48.40;;;19.80;99.90;;;;;;4985257;28;20053;-84
2023/09/09 07:25:52;;;;;;;93.38;71.57;;;19.80;99.90;;;;;;4958914;28;20076;-83
2023/09/09 07:28:23;;;;;;;82.55;65.10;;;19.60;99.90;;;;;;4988140;28;20027;-88
2023/09/09 07:30:48;;;;;;;99.90;77.88;;;19.50;99.90;;;;;;4959779;28;20037;-84
2023/09/09 07:33:14;;;;;;;68.72;55.42;;;19.40;99.90;;;;;;4969681;28;20034;-84
2023/09/09 07:35:41;;;;;;;88.07;66.15;;;19.60;99.90;;;;;;4985623;28;20481;-84
2023/09/09 07:38:07;;;;;;;88.20;68.80;;;19.40;99.90;;;;;;4967959;28;20037;-88
2023/09/09 07:40:33;;;;;;;70.07;55.92;;;19.60;99.90;;;;;;4969891;28;20031;-83
2023/09/09 07:42:59;;;;;;;74.82;56.65;;;19.60;99.90;;;;;;4958750;28;20051;-84
2023/09/09 07:45:24;;;;;;;58.63;45.67;;;19.70;99.90;;;;;;4969363;28;20034;-84
2023/09/09 07:47:50;;;;;;;77.38;61.03;;;20.00;99.90;;;;;;4951730;28;20038;-85
2023/09/09 07:50:16;;;;;;;71.57;55.05;;;20.00;99.90;;;;;;4965062;28;20122;-84
2023/09/09 07:52:41;;;;;;;66.65;52.60;;;20.10;99.90;;;;;;4957220;28;20022;-83
2023/09/09 07:55:08;;;;;;;75.15;59.53;;;20.20;99.90;;;;;;4985067;28;20038;-84
2023/09/09 07:57:33;;;;;;;64.53;50.55;;;20.20;99.90;;;;;;4958566;28;20064;-84
2023/09/09 08:00:00;;;;;;;50.15;38.83;;;20.30;99.90;;;;;;4964500;28;20043;-84
2023/09/09 08:02:26;;;;;;;39.75;32.00;;;20.90;99.90;;;;;;4953674;28;20111;-84
2023/09/09 08:04:52;;;;;;;73.20;56.13;;;21.20;99.90;;;;;;4985132;28;20533;-83
2023/09/09 08:07:18;;;;;;;55.10;42.72;;;20.70;99.90;;;;;;4985018;28;20029;-83
2023/09/09 08:09:44;;;;;;;78.32;61.42;;;20.90;99.90;;;;;;4951460;28;20427;-84
2023/09/09 08:12:10;;;;;;;71.95;57.05;;;20.80;99.90;;;;;;4985504;28;20026;-84
2023/09/09 08:14:36;;;;;;;82.72;64.30;;;20.90;99.90;;;;;;4969424;28;20038;-84
2023/09/09 08:17:02;;;;;;;61.53;48.08;;;20.70;99.90;;;;;;4968665;28;20030;-84
2023/09/09 08:19:27;;;;;;;48.33;40.88;;;21.20;99.90;;;;;;4985793;28;20168;-85
2023/09/09 08:21:53;;;;;;;74.85;59.83;;;21.40;99.90;;;;;;4964635;28;20029;-84
2023/09/09 08:24:20;;;;;;;49.10;39.72;;;21.20;99.90;;;;;;4960380;28;20022;-85
2023/09/09 08:26:46;;;;;;;76.43;61.78;;;21.50;99.90;;;;;;4958622;28;20018;-85
2023/09/09 08:29:11;;;;;;;46.53;38.15;;;21.30;99.90;;;;;;4971120;28;20068;-84
2023/09/09 08:31:37;;;;;;;51.30;42.10;;;21.70;99.90;;;;;;4968995;28;20061;-83
2023/09/09 08:34:03;;;;;;;64.72;53.10;;;21.80;99.90;;;;;;4952208;28;20316;-85
2023/09/09 08:36:28;;;;;;;67.28;53.50;;;21.70;99.90;;;;;;4985587;28;20036;-83
2023/09/09 08:38:56;;;;;;;68.07;55.75;;;21.50;99.90;;;;;;4957603;28;20046;-88
2023/09/09 08:41:42;;;;;;;56.47;46.85;;;21.50;99.90;;;;;;4974207;28;20467;-85
2023/09/09 08:44:28;;;;;;;67.07;55.42;;;21.70;99.90;;;;;;4967459;28;20079;-82
2023/09/09 08:46:54;;;;;;;54.67;43.95;;;21.70;99.90;;;;;;4958308;28;20049;-82
2023/09/09 08:49:23;;;;;;;70.28;59.42;;;22.00;99.90;;;;;;4974384;28;20042;-84
2023/09/09 08:51:57;;;;;;;65.50;53.23;;;21.90;99.90;;;;;;4957443;28;20030;-83
2023/09/09 08:54:26;;;;;;;48.83;41.70;;;21.90;99.90;;;;;;4968791;28;20113;-82
2023/09/09 08:56:52;;;;;;;52.55;42.58;;;22.60;99.90;;;;;;4964855;28;20026;-80
2023/09/09 08:59:21;;;;;;;45.95;37.78;;;22.40;99.90;;;;;;4964710;28;20489;-83
2023/09/09 09:01:48;;;;;;;61.25;51.05;;;22.70;99.90;;;;;;4964596;28;20030;-83
2023/09/09 09:04:15;;;;;;;68.00;55.03;;;22.40;99.90;;;;;;4985732;28;20136;-86
2023/09/09 09:06:42;;;;;;;53.13;45.28;;;22.40;99.90;;;;;;4952023;28;20057;-83
2023/09/09 09:09:08;;;;;;;58.40;49.03;;;22.60;99.90;;;;;;4958921;28;20392;-82
2023/09/09 09:11:34;;;;;;;63.67;54.70;;;22.40;99.90;;;;;;4956335;28;20125;-84
2023/09/09 09:14:07;;;;;;;39.30;34.28;;;22.30;99.90;;;;;;4965958;28;20083;-82
2023/09/09 09:16:42;;;;;;;59.33;51.00;;;23.20;99.90;;;;;;4964407;28;20374;-82
2023/09/09 09:19:18;;;;;;;54.25;45.08;;;22.80;99.90;;;;;;5000372;28;20040;-84
2023/09/09 09:21:44;;;;;;;59.58;48.65;;;22.50;99.90;;;;;;4971157;28;20079;-81
2023/09/09 09:24:10;;;;;;;54.40;45.47;;;22.50;99.90;;;;;;4973829;28;20102;-81
2023/09/09 09:26:36;;;;;;;35.00;28.75;;;22.80;99.90;;;;;;4970598;28;20455;-84
2023/09/09 09:29:04;;;;;;;60.15;48.90;;;23.00;99.90;;;;;;4974189;28;20038;-82
2023/09/09 09:31:30;;;;;;;44.72;37.55;;;23.00;99.90;;;;;;4958382;28;20029;-82
2023/09/09 09:33:57;;;;;;;40.15;34.13;;;23.60;99.90;;;;;;4956825;28;20034;-83
2023/09/09 09:36:23;;;;;;;38.30;32.50;;;23.60;99.90;;;;;;4963901;28;20019;-82
2023/09/09 09:38:50;;;;;;;31.23;27.65;;;24.00;99.90;;;;;;4990973;28;20363;-83
2023/09/09 09:41:20;;;;;;;39.58;33.10;;;24.40;99.90;;;;;;4990687;28;20034;-83
2023/09/09 09:43:48;;;;;;;42.55;36.03;;;24.00;99.90;;;;;;4966206;28;20102;-82
2023/09/09 09:46:21;;;;;;;43.83;36.05;;;24.10;99.90;;;;;;4970237;28;20168;-83
2023/09/09 09:48:47;;;;;;;42.22;35.35;;;24.10;99.90;;;;;;4961278;28;20034;-82
2023/09/09 09:51:13;;;;;;;45.03;37.58;;;24.00;99.90;;;;;;4973476;28;20417;-82
2023/09/09 09:53:48;;;;;;;43.15;34.67;;;24.20;99.90;;;;;;4980766;28;20049;-83
2023/09/09 09:56:18;;;;;;;36.63;31.70;;;24.30;99.90;;;;;;4968535;28;20034;-82
2023/09/09 09:58:45;;;;;;;35.17;29.42;;;24.70;99.90;;;;;;4974435;28;20353;-83
2023/09/09 10:01:12;;;;;;;43.08;35.17;;;24.70;99.90;;;;;;4971614;28;20506;-82
2023/09/09 10:03:45;;;;;;;37.35;31.83;;;24.60;99.90;;;;;;4957284;28;20182;-82
2023/09/09 10:06:13;;;;;;;37.65;31.35;;;24.70;99.90;;;;;;4957357;28;20041;-83
2023/09/09 10:08:47;;;;;;;37.88;30.98;;;24.80;99.90;;;;;;4964470;28;20072;-81
2023/09/09 10:11:17;;;;;;;38.90;32.25;;;24.80;99.90;;;;;;4957742;28;20023;-82
2023/09/09 10:13:53;;;;;;;37.05;28.88;;;25.00;99.90;;;;;;4962109;28;20062;-82
2023/09/09 10:16:21;;;;;;;37.97;32.25;;;25.10;99.90;;;;;;4986249;28;20031;-81
2023/09/09 10:18:49;;;;;;;31.27;24.95;;;25.30;99.90;;;;;;4949608;28;20027;-83
2023/09/09 10:21:17;;;;;;;33.90;27.63;;;25.60;99.90;;;;;;4953617;28;20027;-83
2023/09/09 10:23:45;;;;;;;26.98;22.75;;;25.60;99.90;;;;;;4949447;28;20035;-84
2023/09/09 10:26:11;;;;;;;35.35;28.52;;;25.60;99.90;;;;;;4950206;28;20058;-84
2023/09/09 10:28:38;;;;;;;23.85;20.95;;;25.50;99.90;;;;;;4959617;28;20030;-83
2023/09/09 10:31:05;;;;;;;28.05;25.05;;;25.80;99.90;;;;;;4953510;28;20027;-83
2023/09/09 10:33:31;;;;;;;33.50;27.50;;;25.80;99.90;;;;;;4933947;28;20031;-82
2023/09/09 10:35:58;;;;;;;28.13;25.17;;;26.00;99.90;;;;;;4945850;28;20042;-83
2023/09/09 10:38:26;;;;;;;22.73;20.23;;;25.90;99.90;;;;;;4954202;28;20062;-83
2023/09/09 10:40:52;;;;;;;20.83;17.98;;;26.10;99.90;;;;;;4967179;28;20027;-83
2023/09/09 10:43:18;;;;;;;25.17;22.25;;;26.10;99.90;;;;;;4950683;28;20409;-83
2023/09/09 10:45:45;;;;;;;28.33;25.30;;;26.10;99.90;;;;;;4968077;28;20043;-83
2023/09/09 10:48:11;;;;;;;27.67;24.67;;;25.90;99.90;;;;;;4948263;28;20422;-83
2023/09/09 10:50:43;;;;;;;22.88;20.42;;;26.00;99.90;;;;;;4951295;28;20524;-85
2023/09/09 10:53:29;;;;;;;24.08;21.50;;;26.30;99.90;;;;;;4964985;28;20069;-82
2023/09/09 10:56:17;;;;;;;18.33;16.30;;;26.50;99.90;;;;;;4933453;28;20038;-84
2023/09/09 10:58:44;;;;;;;23.23;20.70;;;26.30;99.90;;;;;;4937851;28;20058;-83
2023/09/09 11:01:22;;;;;;;20.98;18.00;;;26.30;99.90;;;;;;4956165;28;20474;-83
2023/09/09 11:03:48;;;;;;;21.87;19.40;;;26.30;99.90;;;;;;4950609;28;20088;-82
2023/09/09 11:06:27;;;;;;;23.98;19.52;;;26.50;99.90;;;;;;4939838;28;20293;-82
2023/09/09 11:08:59;;;;;;;15.63;14.02;;;26.50;99.90;;;;;;4935170;28;20178;-81
2023/09/09 11:11:30;;;;;;;15.10;13.57;;;26.70;99.90;;;;;;4948201;28;20047;-84
2023/09/09 11:14:02;;;;;;;17.85;15.95;;;26.80;99.90;;;;;;4946875;28;20078;-82
2023/09/09 11:16:28;;;;;;;21.50;19.35;;;26.70;99.90;;;;;;4947085;28;20119;-83
2023/09/09 11:18:55;;;;;;;16.42;14.65;;;26.70;99.90;;;;;;4941572;28;20130;-86
2023/09/09 11:21:22;;;;;;;20.90;17.73;;;26.70;99.90;;;;;;4942042;28;20030;-83
2023/09/09 11:23:50;;;;;;;14.57;13.18;;;26.80;99.90;;;;;;4965700;28;20122;-86
2023/09/09 11:26:16;;;;;;;13.98;12.57;;;27.00;99.90;;;;;;4934590;28;20023;-84
2023/09/09 11:28:46;;;;;;;20.42;18.33;;;27.20;99.90;;;;;;4948419;28;20042;-85
2023/09/09 11:31:11;;;;;;;;;;;27.00;99.90;;;;;;4968140;28;20211;-83
2023/09/09 11:33:38;;;;;;;16.35;14.65;;;27.10;99.90;;;;;;4963885;28;20320;-83
2023/09/09 11:36:04;;;;;;;17.00;15.20;;;27.10;99.90;;;;;;4950388;28;20023;-84
2023/09/09 11:38:39;;;;;;;14.60;13.23;;;27.00;99.90;;;;;;4957779;28;20462;-85
2023/09/09 11:41:06;;;;;;;12.65;11.35;;;27.40;99.90;;;;;;4931513;28;20030;-82
2023/09/09 11:43:32;;;;;;;25.50;21.25;;;27.30;99.90;;;;;;4927588;28;20028;-83
2023/09/09 11:45:58;;;;;;;15.48;14.02;;;27.20;99.90;;;;;;4965315;28;20031;-84
2023/09/09 11:48:24;;;;;;;17.63;15.80;;;27.50;99.90;;;;;;4966434;28;20071;-85
2023/09/09 11:50:51;;;;;;;15.00;13.50;;;27.70;99.90;;;;;;4966927;28;20035;-86
2023/09/09 11:53:20;;;;;;;14.50;13.13;;;27.90;99.90;;;;;;4968014;28;20113;-85
2023/09/09 11:55:51;;;;;;;14.07;12.60;;;27.90;99.90;;;;;;4966599;28;20027;-84
2023/09/09 11:58:16;;;;;;;10.00;9.10;;;27.50;99.90;;;;;;4948076;28;20057;-87
2023/09/09 12:00:42;;;;;;;9.45;8.55;;;27.60;99.90;;;;;;4949840;28;20027;-85
2023/09/09 12:03:08;;;;;;;19.30;17.02;;;27.70;99.90;;;;;;4940588;28;20023;-85
2023/09/09 12:05:34;;;;;;;17.60;15.85;;;27.70;99.90;;;;;;4966541;28;20103;-88
2023/09/09 12:08:01;;;;;;;14.38;12.98;;;27.40;99.90;;;;;;4966259;28;20134;-88
2023/09/09 12:10:34;;;;;;;13.30;12.00;;;27.30;99.90;;;;;;4966155;28;20022;-84
2023/09/09 12:13:00;;;;;;;15.57;13.88;;;27.30;99.90;;;;;;4963169;28;20506;-88
2023/09/09 12:15:26;;;;;;;15.05;13.55;;;27.20;99.90;;;;;;4949888;28;20122;-85
2023/09/09 12:17:52;;;;;;;16.90;15.10;;;27.50;99.90;;;;;;4933404;28;20033;-84
2023/09/09 12:20:18;;;;;;;13.73;12.45;;;27.50;99.90;;;;;;4950074;28;20117;-85
2023/09/09 12:22:51;;;;;;;10.52;9.50;;;27.60;99.90;;;;;;4966737;28;20035;-86
2023/09/09 12:25:34;;;;;;;9.63;8.55;;;27.70;99.90;;;;;;4949976;28;20042;-86
2023/09/09 12:28:01;;;;;;;10.50;9.50;;;27.80;99.90;;;;;;4949457;28;20031;-86